Latest Coastal Weather Observations for Sydney Harbour

IDN60701

Issued at 7:41 am EST Thursday 30 June 2016 (issued every 10 minutes, with the page automatically refreshed every 10 minutes)

About coastal observations | Map of coastal stations | Coastal observations for NSW | Marine services | Other Formats
Station Details ID: 066196 Name: WEDDING CAKE WEST Lat: -33.84 Lon: 151.26 Height: 6.0 m
Data from the previous 72 hours. | See also: Recent months at Sydney Harbour
Date/Time
EST
Temp
°C
Wind Pressure Rain since
9am
mm
Weather Cloud Vis
km
Sea
Height
m
Swell
Dir  Spd
kts
Gust
kts
hPa Trend Height
m
Period
s
Dir
30/07:30am 9.5 NNW 7 11 - - - - - - - - - -
30/07:00am 9.2 NW 4 5 - - - - - - - - - -
30/06:30am 9.6 NW 4 5 - - - - - - - - - -
30/06:00am 10.1 WNW 4 6 - - - - - - - - - -
30/05:30am 10.0 S 2 4 - - - - - - - - - -
30/05:00am 10.9 W 6 9 - - - - - - - - - -
30/04:30am 10.9 W 3 5 - - - - - - - - - -
30/04:00am 11.2 NW 5 8 - - - - - - - - - -
30/03:30am 10.6 W 4 6 - - - - - - - - - -
30/03:00am 11.6 WNW 9 12 - - - - - - - - - -
30/02:30am 11.9 NW 9 11 - - - - - - - - - -
30/02:00am 11.8 NE 5 7 - - - - - - - - - -
30/01:30am 11.6 NNE 4 6 - - - - - - - - - -
30/01:00am 12.2 SSE 4 6 - - - - - - - - - -
30/12:30am 12.2 WSW 4 5 - - - - - - - - - -
30/12:00am 12.2 WSW 3 5 - - - - - - - - - -
 
Date/Time
EST
Temp
°C
Wind Pressure Rain since
9am
mm
Weather Cloud Vis
km
Sea
Height
m
Swell
Dir  Spd
kts
Gust
kts
hPa Trend Height
m
Period
s
Dir
29/11:30pm 12.6 WSW 3 5 - - - - - - - - - -
29/11:00pm 12.7 WSW 1 4 - - - - - - - - - -
29/10:30pm 12.6 CALM 0 0 - - - - - - - - - -
29/10:00pm 13.0 CALM 0 0 - - - - - - - - - -
29/09:30pm 12.8 CALM 0 0 - - - - - - - - - -
29/09:00pm 12.7 CALM 0 0 - - - - - - - - - -
29/08:30pm 13.1 CALM 0 0 - - - - - - - - - -
29/08:00pm 13.6 CALM 0 0 - - - - - - - - - -
29/07:30pm 13.7 CALM 0 0 - - - - - - - - - -
29/07:00pm 14.2 CALM 0 0 - - - - - - - - - -
29/06:30pm 14.1 CALM 0 0 - - - - - - - - - -
29/06:00pm 14.6 CALM 0 0 - - - - - - - - - -
29/05:30pm 14.8 CALM 0 0 - - - - - - - - - -
29/05:00pm 14.5 CALM 0 0 - - - - - - - - - -
29/04:30pm 15.8 CALM 0 0 - - - - - - - - - -
29/04:00pm 18.6 CALM 0 0 - - - - - - - - - -
29/03:30pm 16.8 CALM 0 0 - - - - - - - - - -
29/03:00pm 16.9 CALM 0 0 - - - - - - - - - -
29/02:30pm 17.7 WSW 1 3 - - - - - - - - - -
29/02:00pm 15.8 WSW 5 6 - - - - - - - - - -
29/01:30pm 15.0 WSW 8 9 - - - - - - - - - -
29/01:00pm 14.3 SW 8 9 - - - - - - - - - -
29/12:30pm 13.9 SW 8 9 - - - - - - - - - -
29/12:00pm 13.3 WSW 8 9 - - - - - - - - - -
29/11:30am 12.4 SW 9 10 - - - - - - - - - -
29/11:00am 11.8 WSW 9 11 - - - - - - - - - -
29/10:30am 11.1 WSW 9 11 - - - - - - - - - -
29/10:00am 10.9 WSW 9 12 - - - - - - - - - -
29/09:30am 10.7 WSW 8 11 - - - - - - - - - -
29/09:00am 10.1 W 9 11 - - - - - - - - - -
29/08:30am 9.7 W 8 12 - - - - - - - - - -
29/08:00am 9.4 W 8 14 - - - - - - - - - -
29/07:30am 9.4 W 8 11 - - - - - - - - - -
29/07:00am 9.5 W 8 14 - - - - - - - - - -
29/06:30am 9.4 W 11 16 - - - - - - - - - -
29/06:00am 9.3 WSW 11 14 - - - - - - - - - -
29/05:30am 9.4 W 12 16 - - - - - - - - - -
29/05:00am 9.7 W 15 18 - - - - - - - - - -
29/04:30am 9.6 W 16 18 - - - - - - - - - -
29/04:00am 9.6 W 15 18 - - - - - - - - - -
29/03:30am 9.6 W 15 18 - - - - - - - - - -
29/03:00am 9.9 WSW 14 17 - - - - - - - - - -
29/02:30am 9.9 WSW 14 17 - - - - - - - - - -
29/02:00am 10.1 WSW 15 18 - - - - - - - - - -
29/01:30am 10.4 W 15 18 - - - - - - - - - -
29/01:00am 10.2 W 14 17 - - - - - - - - - -
29/12:30am 10.4 WSW 14 18 - - - - - - - - - -
29/12:00am 10.5 W 14 18 - - - - - - - - - -
 
Date/Time
EST
Temp
°C
Wind Pressure Rain since
9am
mm
Weather Cloud Vis
km
Sea
Height
m
Swell
Dir  Spd
kts
Gust
kts
hPa Trend Height
m
Period
s
Dir
28/11:30pm 10.7 W 12 15 - - - - - - - - - -
28/11:00pm 11.0 W 12 16 - - - - - - - - - -
28/10:30pm 11.3 W 13 17 - - - - - - - - - -
28/10:00pm 11.4 W 13 15 - - - - - - - - - -
28/09:30pm 11.6 W 13 15 - - - - - - - - - -
28/09:00pm 12.4 WSW 11 19 - - - - - - - - - -
28/08:30pm 12.8 W 12 15 - - - - - - - - - -
28/08:00pm 13.4 W 12 15 - - - - - - - - - -
28/07:30pm 13.7 W 10 12 - - - - - - - - - -
28/07:00pm 14.2 W 9 11 - - - - - - - - - -
28/06:30pm 14.4 W 9 12 - - - - - - - - - -
28/06:00pm 14.3 W 7 9 - - - - - - - - - -
28/05:30pm 14.9 SSW 8 9 - - - - - - - - - -
28/05:00pm 14.9 S 9 12 - - - - - - - - - -
28/04:30pm 15.2 S 10 12 - - - - - - - - - -
28/04:00pm 15.5 S 10 13 - - - - - - - - - -
28/03:30pm 15.4 S 12 14 - - - - - - - - - -
28/03:00pm 15.3 S 12 17 - - - - - - - - - -
28/02:30pm 15.2 SSW 14 17 - - - - - - - - - -
28/02:00pm 15.0 SSW 14 18 - - - - - - - - - -
28/01:30pm 15.2 SW 15 21 - - - - - - - - - -
28/01:00pm 15.0 SW 17 22 - - - - - - - - - -
28/12:30pm 14.5 SW 14 19 - - - - - - - - - -
28/12:00pm 14.2 WSW 15 19 - - - - - - - - - -
28/11:30am 13.8 WSW 16 22 - - - - - - - - - -
28/11:00am 13.0 WSW 14 20 - - - - - - - - - -
28/10:30am 12.3 WSW 16 22 - - - - - - - - - -
28/10:00am 11.8 W 17 22 - - - - - - - - - -
28/09:30am 11.1 WSW 16 22 - - - - - - - - - -
28/09:00am 10.2 W 19 24 - - - - - - - - - -
28/08:30am 9.6 W 19 23 - - - - - - - - - -
28/08:00am 9.0 W 18 23 - - - - - - - - - -
28/07:30am 9.0 W 18 23 - - - - - - - - - -
28/07:00am 9.0 W 16 23 - - - - - - - - - -
28/06:30am 9.3 W 19 25 - - - - - - - - - -
28/06:00am 9.6 W 19 26 - - - - - - - - - -
28/05:30am 9.6 WSW 18 28 - - - - - - - - - -
28/05:29am 9.9 W 18 28 - - - - - - - - - -
28/05:00am 9.7 W 21 28 - - - - - - - - - -
28/04:30am 10.0 WSW 18 23 - - - - - - - - - -
28/04:00am 9.7 WSW 17 21 - - - - - - - - - -
28/03:30am 9.8 W 17 22 - - - - - - - - - -
28/03:00am 10.0 W 19 24 - - - - - - - - - -
28/02:30am 9.9 WSW 17 23 - - - - - - - - - -
28/02:00am 9.9 W 19 29 - - - - - - - - - -
28/01:56am 10.0 W 19 29 - - - - - - - - - -
28/01:30am 10.2 WSW 17 23 - - - - - - - - - -
28/01:00am 10.3 WSW 18 24 - - - - - - - - - -
28/12:30am 10.7 WSW 17 26 - - - - - - - - - -
28/12:00am 10.8 WSW 18 26 - - - - - - - - - -
 
Date/Time
EST
Temp
°C
Wind Pressure Rain since
9am
mm
Weather Cloud Vis
km
Sea
Height
m
Swell
Dir  Spd
kts
Gust
kts
hPa Trend Height
m
Period
s
Dir
27/11:30pm 11.2 WSW 20 30 - - - - - - - - - -
27/11:17pm 11.4 WSW 18 28 - - - - - - - - - -
27/11:00pm 11.1 WSW 17 25 - - - - - - - - - -
27/10:49pm 11.0 WSW 18 28 - - - - - - - - - -
27/10:30pm 11.1 WSW 21 28 - - - - - - - - - -
27/10:00pm 11.1 WSW 15 20 - - - - - - - - - -
27/09:30pm 10.5 WSW 15 19 - - - - - - - - - -
27/09:00pm 10.5 WSW 14 21 - - - - - - - - - -
27/08:30pm 10.6 WSW 17 24 - - - - - - - - - -
27/08:00pm 11.5 W 16 23 - - - - - - - - - -
27/07:30pm 11.5 WSW 17 24 - - - - - - - - - -
27/07:00pm 11.6 WSW 16 23 - - - - - - - - - -
27/06:30pm 11.5 W 15 19 - - - - - - - - - -
27/06:00pm 11.3 WSW 13 19 - - - - - - - - - -
27/05:30pm 11.3 W 12 16 - - - - - - - - - -
27/05:00pm 11.6 WSW 13 20 - - - - - - - - - -
27/04:30pm 11.8 WSW 15 19 - - - - - - - - - -
27/04:00pm 11.7 SW 16 21 - - - - - - - - - -
27/03:30pm 11.8 WSW 11 14 - - - - - - - - - -
27/03:00pm 11.9 SW 14 18 - - - - - - - - - -
27/02:30pm 11.6 WSW 13 17 - - - - - - - - - -
27/02:00pm 11.1 WSW 11 15 - - - - - - - - - -
27/01:30pm 10.3 W 13 17 - - - - - - - - - -
27/01:00pm 10.5 WSW 9 13 - - - - - - - - - -
27/12:30pm 9.9 WSW 12 14 - - - - - - - - - -
27/12:00pm 9.6 W 13 17 - - - - - - - - - -
27/11:30am 9.5 WSW 15 22 - - - - - - - - - -
27/11:00am 9.7 WSW 15 20 - - - - - - - - - -
27/10:30am 9.9 W 14 18 - - - - - - - - - -
27/10:00am 9.7 W 16 19 - - - - - - - - - -
27/09:30am 9.6 W 17 21 - - - - - - - - - -
27/09:00am 9.5 W 16 21 - - - - - - - - - -
27/08:30am 9.9 W 17 21 - - - - - - - - - -
27/08:00am 9.8 W 16 19 - - - - - - - - - -

Other Formats:

Comma delimited format used in spreadsheet applications
http://www.bom.gov.au/fwo/IDN60701/IDN60701.95766.axf

JavaScript Object Notation format (JSON) in row-major order
http://www.bom.gov.au/fwo/IDN60701/IDN60701.95766.json